Time;durP1;ratioP1;P1;durP2;ratioP2;P2;SDS_P1;SDS_P2;PMS_P1;PMS_P2;Temp;Humidity;BMP_temperature;BMP_pressure;BME280_temperature;BME280_humidity;BME280_pressure;Samples;Min_cycle;Max_cycle;Signal;HPM_P1;HPM_P2
2022/03/29 00:01:11;;;;;;;65.00;60.90;;;;;;;;;;4992822;28;20406;-61
2022/03/29 00:03:38;;;;;;;54.70;51.60;;;;;;;;;;4992859;28;20409;-61
2022/03/29 00:06:04;;;;;;;59.38;55.78;;;;;;;;;;4992656;28;20248;-60
2022/03/29 00:08:30;;;;;;;55.58;52.33;;;;;;;;;;4992619;28;20198;-61
2022/03/29 00:10:56;;;;;;;58.20;54.70;;;;;;;;;;4992479;28;20588;-58
2022/03/29 00:13:22;;;;;;;62.43;58.33;;;;;;;;;;4992535;28;20408;-61
2022/03/29 00:15:47;;;;;;;63.73;59.63;;;;;;;;;;4992545;28;20433;-61
2022/03/29 00:18:13;;;;;;;56.47;53.13;;;;;;;;;;4992565;28;20457;-61
2022/03/29 00:20:39;;;;;;;63.53;59.33;;;;;;;;;;4992198;28;20416;-60
2022/03/29 00:23:06;;;;;;;51.77;48.73;;;;;;;;;;4991876;28;20497;-61
2022/03/29 00:25:32;;;;;;;76.30;71.15;;;;;;;;;;4992296;28;20956;-57
2022/03/29 00:27:58;;;;;;;61.25;57.35;;;;;;;;;;4992201;28;20187;-61
2022/03/29 00:30:24;;;;;;;69.57;65.15;;;;;;;;;;4992260;28;20181;-60
2022/03/29 00:32:50;;;;;;;65.78;61.50;;;;;;;;;;4992632;28;20193;-59
2022/03/29 00:35:16;;;;;;;73.97;68.87;;;;;;;;;;4992386;28;20678;-61
2022/03/29 00:37:43;;;;;;;62.73;58.73;;;;;;;;;;4992083;28;20402;-61
2022/03/29 00:40:10;;;;;;;81.20;75.78;;;;;;;;;;4991230;28;20774;-61
2022/03/29 00:42:36;;;;;;;76.53;71.35;;;;;;;;;;4992096;28;20646;-61
2022/03/29 00:45:03;;;;;;;76.35;71.30;;;;;;;;;;4992120;28;20248;-61
2022/03/29 00:47:29;;;;;;;73.18;67.97;;;;;;;;;;4992113;28;20269;-61
2022/03/29 00:49:54;;;;;;;72.17;67.27;;;;;;;;;;4991960;28;20777;-61
2022/03/29 00:52:21;;;;;;;70.27;65.37;;;;;;;;;;4991887;28;20413;-62
2022/03/29 00:54:48;;;;;;;65.03;60.78;;;;;;;;;;4992057;28;20433;-61
2022/03/29 00:57:14;;;;;;;67.13;62.72;;;;;;;;;;4991875;28;20272;-61
2022/03/29 00:59:45;;;;;;;58.33;54.67;;;;;;;;;;4992132;28;20178;-61
2022/03/29 01:02:11;;;;;;;54.35;51.05;;;;;;;;;;4991840;28;20174;-61
2022/03/29 01:04:38;;;;;;;63.60;59.50;;;;;;;;;;4992026;28;20216;-60
2022/03/29 01:07:04;;;;;;;72.05;67.15;;;;;;;;;;4992066;28;20424;-59
2022/03/29 01:09:31;;;;;;;73.05;68.15;;;;;;;;;;4991769;28;20213;-60
2022/03/29 01:11:57;;;;;;;65.70;61.33;;;;;;;;;;4991646;28;20185;-61
2022/03/29 01:14:24;;;;;;;69.88;65.22;;;;;;;;;;4991809;28;20194;-60
2022/03/29 01:19:37;;;;;;;63.92;59.60;;;;;;;;;;4992202;28;20237;-61
2022/03/29 01:22:05;;;;;;;65.57;61.00;;;;;;;;;;4991430;28;20186;-61
2022/03/29 01:26:59;;;;;;;74.07;68.90;;;;;;;;;;5026630;22;20295;-59
2022/03/29 01:29:25;;;;;;;79.00;73.20;;;;;;;;;;5010951;28;21002;-57
2022/03/29 01:31:51;;;;;;;84.93;78.43;;;;;;;;;;5010554;28;20169;-59
2022/03/29 01:34:18;;;;;;;82.88;76.65;;;;;;;;;;5011685;28;20496;-58
2022/03/29 01:36:43;;;;;;;98.82;91.03;;;;;;;;;;5015018;28;20669;-57
2022/03/29 01:39:09;;;;;;;96.03;88.33;;;;;;;;;;5015082;28;20173;-58
2022/03/29 01:41:36;;;;;;;94.27;86.27;;;;;;;;;;5014654;28;20977;-56
2022/03/29 01:44:02;;;;;;;94.25;86.85;;;;;;;;;;5015125;28;20856;-56
2022/03/29 01:46:27;;;;;;;90.50;83.30;;;;;;;;;;5014398;28;20255;-60
2022/03/29 01:48:54;;;;;;;106.90;96.27;;;;;;;;;;5014528;28;20475;-59
2022/03/29 01:51:20;;;;;;;106.07;95.78;;;;;;;;;;5014638;28;20483;-58
2022/03/29 01:53:52;;;;;;;104.55;95.00;;;;;;;;;;5014628;28;20174;-56
2022/03/29 01:56:18;;;;;;;107.93;97.28;;;;;;;;;;5014680;28;20198;-59
2022/03/29 01:58:44;;;;;;;105.50;95.80;;;;;;;;;;5014756;28;20735;-55
2022/03/29 02:01:10;;;;;;;105.07;95.73;;;;;;;;;;5014360;28;20408;-56
2022/03/29 02:03:36;;;;;;;107.83;98.33;;;;;;;;;;5014622;28;20988;-57
2022/03/29 02:06:01;;;;;;;108.50;98.10;;;;;;;;;;5014324;28;20970;-55
2022/03/29 02:08:27;;;;;;;112.10;101.80;;;;;;;;;;5014302;28;20954;-57
2022/03/29 02:10:53;;;;;;;113.10;103.10;;;;;;;;;;5014084;28;20397;-56
2022/03/29 02:13:21;;;;;;;109.97;100.37;;;;;;;;;;5014428;28;20741;-59
2022/03/29 02:15:47;;;;;;;112.00;102.40;;;;;;;;;;5014309;28;21035;-58
2022/03/29 02:18:13;;;;;;;114.87;104.07;;;;;;;;;;5014299;28;20197;-57
2022/03/29 02:20:39;;;;;;;116.45;106.35;;;;;;;;;;5014133;28;20407;-59
2022/03/29 02:23:09;;;;;;;128.00;117.90;;;;;;;;;;5020034;28;20174;-56
2022/03/29 02:25:36;;;;;;;115.50;105.18;;;;;;;;;;5014248;28;20225;-57
2022/03/29 02:28:02;;;;;;;113.80;103.70;;;;;;;;;;5014182;28;20596;-55
2022/03/29 02:30:29;;;;;;;116.72;105.53;;;;;;;;;;5013989;28;20216;-57
2022/03/29 02:32:55;;;;;;;117.13;106.57;;;;;;;;;;5014170;28;20182;-60
2022/03/29 02:35:21;;;;;;;114.53;104.37;;;;;;;;;;5014094;28;20201;-60
2022/03/29 02:37:47;;;;;;;111.28;101.00;;;;;;;;;;5014036;28;20431;-60
2022/03/29 02:40:13;;;;;;;115.87;104.87;;;;;;;;;;5013777;28;20260;-61
2022/03/29 02:42:46;;;;;;;107.70;98.32;;;;;;;;;;5014052;28;20418;-61
2022/03/29 02:45:12;;;;;;;110.75;100.85;;;;;;;;;;5013714;28;20240;-61
2022/03/29 02:47:38;;;;;;;109.15;99.45;;;;;;;;;;5013096;28;20540;-60
2022/03/29 02:50:05;;;;;;;104.07;95.17;;;;;;;;;;5013260;28;20285;-61
2022/03/29 02:52:30;;;;;;;108.50;98.90;;;;;;;;;;5013469;28;20413;-60
2022/03/29 02:54:56;;;;;;;108.93;99.33;;;;;;;;;;5013492;28;20204;-59
2022/03/29 02:57:22;;;;;;;105.97;96.47;;;;;;;;;;5013559;28;20408;-59
2022/03/29 02:59:49;;;;;;;106.17;96.27;;;;;;;;;;5013489;28;20466;-57
2022/03/29 03:02:15;;;;;;;111.00;101.05;;;;;;;;;;5013269;28;20912;-59
2022/03/29 03:04:40;;;;;;;110.27;100.23;;;;;;;;;;5013334;28;20256;-58
2022/03/29 03:07:06;;;;;;;102.40;93.83;;;;;;;;;;5013365;28;20459;-58
2022/03/29 03:09:32;;;;;;;104.17;94.67;;;;;;;;;;5013185;28;20452;-57
2022/03/29 03:11:58;;;;;;;98.57;90.63;;;;;;;;;;5013062;28;20406;-59
2022/03/29 03:14:24;;;;;;;103.43;94.53;;;;;;;;;;5013259;28;20783;-60
2022/03/29 03:16:50;;;;;;;103.77;94.77;;;;;;;;;;5013209;28;20432;-56
2022/03/29 03:19:16;;;;;;;108.70;98.70;;;;;;;;;;5013075;28;20413;-59
2022/03/29 03:21:42;;;;;;;96.23;88.07;;;;;;;;;;5012902;28;20400;-59
2022/03/29 03:24:08;;;;;;;107.27;97.37;;;;;;;;;;5013006;28;20444;-58
2022/03/29 03:26:34;;;;;;;99.80;91.10;;;;;;;;;;5012962;28;20471;-58
2022/03/29 03:29:00;;;;;;;97.13;88.77;;;;;;;;;;5012897;28;20491;-59
2022/03/29 03:31:26;;;;;;;96.47;88.77;;;;;;;;;;5012783;28;20405;-56
2022/03/29 03:33:52;;;;;;;99.50;91.27;;;;;;;;;;5012482;28;20405;-60
2022/03/29 03:36:18;;;;;;;101.03;91.93;;;;;;;;;;5012306;28;20451;-57
2022/03/29 03:38:44;;;;;;;100.97;91.97;;;;;;;;;;5012670;28;20408;-56
2022/03/29 03:41:09;;;;;;;100.93;91.13;;;;;;;;;;5012623;28;20204;-60
2022/03/29 03:43:35;;;;;;;101.37;91.57;;;;;;;;;;5012700;28;20823;-57
2022/03/29 03:46:01;;;;;;;103.57;92.87;;;;;;;;;;5012509;28;20444;-58
2022/03/29 03:48:27;;;;;;;102.53;91.83;;;;;;;;;;5012418;28;20463;-57
2022/03/29 03:50:53;;;;;;;103.73;93.93;;;;;;;;;;5012439;28;20448;-60
2022/03/29 03:53:19;;;;;;;92.23;83.83;;;;;;;;;;5012569;28;20420;-59
2022/03/29 03:55:45;;;;;;;95.13;85.97;;;;;;;;;;5012684;28;20965;-60
2022/03/29 03:58:13;;;;;;;98.07;88.77;;;;;;;;;;5011876;28;20412;-60
2022/03/29 04:00:39;;;;;;;96.15;86.68;;;;;;;;;;5012371;28;20408;-60
2022/03/29 04:03:05;;;;;;;101.67;91.37;;;;;;;;;;5012534;28;20173;-59
2022/03/29 04:05:34;;;;;;;97.37;87.57;;;;;;;;;;5012629;28;20498;-57
2022/03/29 04:07:59;;;;;;;90.68;81.50;;;;;;;;;;5012456;28;20488;-60
2022/03/29 04:10:26;;;;;;;96.30;86.40;;;;;;;;;;5012151;28;20289;-60
2022/03/29 04:12:52;;;;;;;84.60;76.05;;;;;;;;;;5012578;28;20777;-59
2022/03/29 04:15:18;;;;;;;91.35;82.25;;;;;;;;;;5012515;28;20818;-60
2022/03/29 04:17:44;;;;;;;90.50;80.97;;;;;;;;;;5012345;28;20169;-60
2022/03/29 04:20:10;;;;;;;89.82;80.85;;;;;;;;;;5011950;28;20412;-58
2022/03/29 04:22:36;;;;;;;85.43;76.82;;;;;;;;;;5012204;28;20257;-59
2022/03/29 04:25:02;;;;;;;85.60;76.33;;;;;;;;;;5012125;28;20287;-60
2022/03/29 04:27:28;;;;;;;84.38;75.63;;;;;;;;;;5012187;28;20407;-61
2022/03/29 04:29:54;;;;;;;88.37;78.33;;;;;;;;;;5011834;28;20197;-60
2022/03/29 04:32:20;;;;;;;90.70;81.20;;;;;;;;;;5011730;28;20400;-61
2022/03/29 04:34:47;;;;;;;89.03;78.67;;;;;;;;;;5011784;28;20888;-61
2022/03/29 04:37:13;;;;;;;85.60;76.47;;;;;;;;;;5011764;28;20420;-61
2022/03/29 04:39:39;;;;;;;83.03;74.63;;;;;;;;;;5011978;28;20173;-61
2022/03/29 04:42:06;;;;;;;81.63;73.20;;;;;;;;;;5010366;28;20412;-60
2022/03/29 04:44:34;;;;;;;81.18;72.80;;;;;;;;;;5011755;28;20280;-61
2022/03/29 04:47:00;;;;;;;84.28;75.55;;;;;;;;;;5011673;28;20201;-61
2022/03/29 04:49:26;;;;;;;83.63;75.38;;;;;;;;;;5011782;28;20776;-58
2022/03/29 04:51:52;;;;;;;83.07;75.03;;;;;;;;;;5011462;28;20254;-61
2022/03/29 04:54:18;;;;;;;84.27;76.27;;;;;;;;;;5011672;28;20911;-61
2022/03/29 04:56:44;;;;;;;76.17;69.27;;;;;;;;;;5011605;28;20460;-59
2022/03/29 04:59:11;;;;;;;77.73;70.33;;;;;;;;;;5011542;28;20437;-61
2022/03/29 05:01:37;;;;;;;83.55;75.38;;;;;;;;;;5011397;28;20412;-60
2022/03/29 05:04:04;;;;;;;80.10;72.05;;;;;;;;;;5011499;28;20174;-60
2022/03/29 05:06:30;;;;;;;80.97;72.63;;;;;;;;;;5011595;28;20300;-59
2022/03/29 05:08:56;;;;;;;80.83;72.60;;;;;;;;;;5011488;28;20276;-62
2022/03/29 05:11:22;;;;;;;88.37;79.07;;;;;;;;;;5015155;28;20549;-59
2022/03/29 05:13:50;;;;;;;78.90;71.03;;;;;;;;;;5015464;28;20400;-61
2022/03/29 05:16:15;;;;;;;80.82;73.18;;;;;;;;;;5015330;28;20252;-60
2022/03/29 05:18:43;;;;;;;74.30;66.60;;;;;;;;;;5015497;28;20644;-61
2022/03/29 05:21:10;;;;;;;80.07;72.20;;;;;;;;;;5015093;28;20401;-60
2022/03/29 05:23:36;;;;;;;74.43;67.43;;;;;;;;;;5015375;28;20239;-60
2022/03/29 05:26:02;;;;;;;74.90;67.60;;;;;;;;;;5015100;28;20249;-59
2022/03/29 05:28:28;;;;;;;71.32;65.13;;;;;;;;;;5015169;28;20180;-56
2022/03/29 05:30:54;;;;;;;71.03;64.93;;;;;;;;;;5014398;28;20211;-59
2022/03/29 05:33:20;;;;;;;67.30;61.90;;;;;;;;;;5015145;28;20404;-57
2022/03/29 05:35:46;;;;;;;80.37;72.07;;;;;;;;;;5015115;28;20424;-60
2022/03/29 05:38:12;;;;;;;83.35;74.95;;;;;;;;;;5015100;28;20415;-59
2022/03/29 05:40:38;;;;;;;88.07;78.87;;;;;;;;;;5014531;28;20256;-59
2022/03/29 05:43:09;;;;;;;83.18;74.47;;;;;;;;;;5014975;28;20463;-61
2022/03/29 05:45:35;;;;;;;89.85;80.45;;;;;;;;;;5014849;28;20197;-61
2022/03/29 05:50:45;;;;;;;84.72;76.05;;;;;;;;;;5014156;28;20479;-61
2022/03/29 05:53:11;;;;;;;82.00;73.83;;;;;;;;;;5014778;28;20197;-62
2022/03/29 05:55:37;;;;;;;86.13;77.17;;;;;;;;;;5014499;28;20424;-61
2022/03/29 05:58:03;;;;;;;82.70;74.75;;;;;;;;;;5014721;28;20407;-61
2022/03/29 06:00:31;;;;;;;85.10;76.20;;;;;;;;;;5014472;28;20249;-61
2022/03/29 06:02:57;;;;;;;88.13;79.15;;;;;;;;;;5014661;28;20496;-60
2022/03/29 06:05:23;;;;;;;91.28;81.85;;;;;;;;;;5014218;28;20209;-62
2022/03/29 06:07:50;;;;;;;86.90;77.70;;;;;;;;;;5014251;28;20185;-58
2022/03/29 06:10:16;;;;;;;88.82;80.45;;;;;;;;;;5013980;28;20208;-60
2022/03/29 06:12:45;;;;;;;88.28;80.10;;;;;;;;;;5014584;28;20572;-58
2022/03/29 06:15:11;;;;;;;85.10;76.80;;;;;;;;;;5014295;28;20261;-58
2022/03/29 06:17:37;;;;;;;87.20;79.00;;;;;;;;;;5014408;28;20538;-59
2022/03/29 06:20:04;;;;;;;91.30;83.30;;;;;;;;;;5014382;28;20260;-60
2022/03/29 06:22:31;;;;;;;88.65;81.15;;;;;;;;;;5011906;28;20189;-60
2022/03/29 06:24:58;;;;;;;96.63;87.90;;;;;;;;;;5014198;28;20654;-60
2022/03/29 06:27:24;;;;;;;74.10;68.88;;;;;;;;;;5014617;28;20259;-61
2022/03/29 06:29:50;;;;;;;93.90;85.85;;;;;;;;;;5014270;28;20564;-60
2022/03/29 06:32:16;;;;;;;92.33;84.53;;;;;;;;;;5014263;28;20182;-58
2022/03/29 06:34:42;;;;;;;95.13;86.73;;;;;;;;;;5013534;28;20447;-61
2022/03/29 06:37:09;;;;;;;97.70;89.33;;;;;;;;;;5014068;28;20413;-62
2022/03/29 06:39:36;;;;;;;96.43;87.93;;;;;;;;;;5014123;28;20447;-61
2022/03/29 06:42:02;;;;;;;100.90;93.05;;;;;;;;;;5013891;28;20620;-63
2022/03/29 06:44:29;;;;;;;102.05;93.75;;;;;;;;;;5013285;28;20212;-61
2022/03/29 06:46:57;;;;;;;105.07;96.07;;;;;;;;;;5014117;28;20193;-61
2022/03/29 06:49:23;;;;;;;102.05;94.38;;;;;;;;;;5014080;28;20194;-59
2022/03/29 06:51:50;;;;;;;98.50;91.10;;;;;;;;;;5012953;28;20225;-59
2022/03/29 06:54:16;;;;;;;99.90;92.28;;;;;;;;;;5012556;28;20176;-60
2022/03/29 06:56:42;;;;;;;113.75;105.05;;;;;;;;;;5013482;28;20193;-60
2022/03/29 06:59:08;;;;;;;108.35;99.95;;;;;;;;;;5013552;28;20178;-59
2022/03/29 07:01:35;;;;;;;110.75;102.28;;;;;;;;;;5013463;28;20599;-59
2022/03/29 07:04:03;;;;;;;78.60;73.57;;;;;;;;;;5012265;28;20661;-59
2022/03/29 07:06:32;;;;;;;81.53;76.63;;;;;;;;;;5005899;28;20585;-62
2022/03/29 07:11:45;;;;;;;44.33;42.25;;;;;;;;;;5011629;28;20197;-62
2022/03/29 07:14:11;;;;;;;32.60;31.30;;;;;;;;;;5013389;28;20169;-61
2022/03/29 07:16:39;;;;;;;36.13;34.67;;;;;;;;;;5011916;28;20205;-61
2022/03/29 07:19:08;;;;;;;41.17;39.40;;;;;;;;;;5013149;28;20424;-61
2022/03/29 07:21:34;;;;;;;45.78;43.78;;;;;;;;;;5013184;28;20188;-63
2022/03/29 07:24:00;;;;;;;41.83;40.00;;;;;;;;;;5013450;28;20181;-60
2022/03/29 07:26:26;;;;;;;35.80;34.40;;;;;;;;;;5012829;28;20452;-61
2022/03/29 07:28:52;;;;;;;32.40;31.20;;;;;;;;;;5022710;28;20491;-59
2022/03/29 07:31:17;;;;;;;32.50;31.30;;;;;;;;;;5012209;28;20671;-61
2022/03/29 07:33:43;;;;;;;41.47;39.33;;;;;;;;;;5036768;22;21074;-62
2022/03/29 07:36:09;;;;;;;34.03;32.63;;;;;;;;;;5013715;28;20412;-63
2022/03/29 07:38:35;;;;;;;30.70;29.50;;;;;;;;;;5020192;28;20419;-63
2022/03/29 07:41:02;;;;;;;37.87;36.30;;;;;;;;;;5010684;28;20415;-63
2022/03/29 07:43:28;;;;;;;34.42;32.92;;;;;;;;;;5003402;28;20466;-63
2022/03/29 07:45:55;;;;;;;33.97;32.67;;;;;;;;;;5004674;28;20590;-64
2022/03/29 07:48:22;;;;;;;31.40;30.20;;;;;;;;;;5002175;28;20437;-64
2022/03/29 07:50:48;;;;;;;29.30;28.23;;;;;;;;;;5002807;28;20183;-62
2022/03/29 07:53:14;;;;;;;35.93;34.53;;;;;;;;;;5005249;28;20954;-64
2022/03/29 07:55:40;;;;;;;35.90;34.40;;;;;;;;;;5012602;28;20835;-63
2022/03/29 07:58:06;;;;;;;38.17;36.63;;;;;;;;;;5000174;28;20935;-64
2022/03/29 08:00:32;;;;;;;36.40;35.27;;;;;;;;;;4991493;28;20430;-64
2022/03/29 08:03:03;;;;;;;52.15;50.05;;;;;;;;;;4992807;28;20460;-59
2022/03/29 08:05:30;;;;;;;50.45;48.38;;;;;;;;;;4992622;28;20196;-63
2022/03/29 08:07:59;;;;;;;47.73;45.83;;;;;;;;;;4992745;28;20181;-64
2022/03/29 08:10:27;;;;;;;104.63;99.43;;;;;;;;;;4992200;28;20895;-64
2022/03/29 08:12:54;;;;;;;123.00;116.43;;;;;;;;;;4997722;28;21031;-63
2022/03/29 08:15:20;;;;;;;115.00;109.03;;;;;;;;;;5000331;28;20180;-62
2022/03/29 08:17:45;;;;;;;105.83;100.33;;;;;;;;;;5002190;28;20412;-63
2022/03/29 08:20:11;;;;;;;116.17;110.27;;;;;;;;;;5000477;28;20421;-61
2022/03/29 08:22:41;;;;;;;121.80;115.50;;;;;;;;;;4994523;28;20467;-62
2022/03/29 08:25:07;;;;;;;126.03;119.53;;;;;;;;;;4992293;28;20449;-62
2022/03/29 08:27:33;;;;;;;123.10;117.00;;;;;;;;;;4992234;28;20905;-61
2022/03/29 08:29:59;;;;;;;157.27;148.97;;;;;;;;;;4991171;28;20210;-62
2022/03/29 08:32:25;;;;;;;141.07;133.77;;;;;;;;;;4991328;28;20964;-64
2022/03/29 08:34:51;;;;;;;116.97;111.27;;;;;;;;;;4991910;28;20418;-65
2022/03/29 08:37:18;;;;;;;138.27;131.37;;;;;;;;;;4992317;28;20492;-64
2022/03/29 08:39:44;;;;;;;150.50;143.03;;;;;;;;;;4992622;28;20483;-64
2022/03/29 08:42:11;;;;;;;150.37;142.77;;;;;;;;;;5011440;28;20424;-64
2022/03/29 08:44:38;;;;;;;148.77;141.43;;;;;;;;;;5011410;28;20412;-63
2022/03/29 08:47:06;;;;;;;143.77;136.80;;;;;;;;;;5011691;28;20420;-63
2022/03/29 08:49:32;;;;;;;143.20;136.20;;;;;;;;;;5013327;28;21047;-62
2022/03/29 08:51:59;;;;;;;137.67;131.10;;;;;;;;;;5012021;28;20444;-62
2022/03/29 08:54:25;;;;;;;148.80;141.43;;;;;;;;;;5012126;28;20416;-61
2022/03/29 08:56:51;;;;;;;154.07;146.30;;;;;;;;;;5012006;28;20908;-61
2022/03/29 08:59:18;;;;;;;156.67;148.73;;;;;;;;;;5011872;28;20412;-63
2022/03/29 09:01:44;;;;;;;155.87;147.77;;;;;;;;;;5008168;28;20774;-63
2022/03/29 09:04:11;;;;;;;178.93;168.93;;;;;;;;;;4994058;28;20564;-62
2022/03/29 09:06:49;;;;;;;179.63;169.87;;;;;;;;;;4997412;28;20422;-63
2022/03/29 09:09:25;;;;;;;171.33;162.30;;;;;;;;;;4982707;28;20461;-63
2022/03/29 09:11:53;;;;;;;172.03;163.43;;;;;;;;;;4990970;28;20433;-62
2022/03/29 09:14:19;;;;;;;161.97;154.27;;;;;;;;;;4991517;28;20508;-64
2022/03/29 09:16:46;;;;;;;166.83;159.63;;;;;;;;;;4991254;28;20414;-63
2022/03/29 09:19:12;;;;;;;166.67;159.70;;;;;;;;;;4991007;28;20496;-63
2022/03/29 09:21:42;;;;;;;199.10;190.70;;;;;;;;;;4989948;28;20545;-63
2022/03/29 09:24:09;;;;;;;182.53;174.93;;;;;;;;;;4989994;28;20429;-64
2022/03/29 09:26:37;;;;;;;43.80;42.30;;;;;;;;;;4989690;28;20413;-64
2022/03/29 09:29:03;;;;;;;131.10;126.30;;;;;;;;;;4989833;28;20465;-64
2022/03/29 09:31:29;;;;;;;187.70;180.23;;;;;;;;;;4990690;28;20433;-64
2022/03/29 09:34:11;;;;;;;227.20;218.13;;;;;;;;;;4989949;28;20468;-63
2022/03/29 09:36:44;;;;;;;249.80;239.77;;;;;;;;;;4990440;28;20504;-64
2022/03/29 09:39:29;;;;;;;285.07;273.70;;;;;;;;;;4990821;28;20402;-64
2022/03/29 09:41:57;;;;;;;275.80;265.47;;;;;;;;;;4989455;28;20785;-62
2022/03/29 09:44:32;;;;;;;295.53;284.37;;;;;;;;;;4988783;28;20421;-62
2022/03/29 09:47:00;;;;;;;338.47;325.43;;;;;;;;;;4989773;28;20391;-62
2022/03/29 09:49:27;;;;;;;360.10;346.27;;;;;;;;;;4991340;28;20436;-63
2022/03/29 09:52:11;;;;;;;363.67;349.73;;;;;;;;;;4991335;28;20825;-63
2022/03/29 09:54:38;;;;;;;326.53;314.70;;;;;;;;;;4990676;28;20516;-63
2022/03/29 09:57:04;;;;;;;324.97;313.30;;;;;;;;;;4992951;28;20414;-63
2022/03/29 09:59:32;;;;;;;328.77;316.93;;;;;;;;;;4993324;28;20407;-64
2022/03/29 10:01:58;;;;;;;319.27;307.83;;;;;;;;;;4986811;28;20437;-63
2022/03/29 10:04:25;;;;;;;278.90;269.47;;;;;;;;;;4994752;28;20422;-63
2022/03/29 10:06:52;;;;;;;316.03;304.80;;;;;;;;;;4993315;28;20837;-63
2022/03/29 10:09:26;;;;;;;342.47;329.90;;;;;;;;;;4992862;28;20470;-63
2022/03/29 10:11:55;;;;;;;334.63;322.37;;;;;;;;;;4993097;28;20432;-63
2022/03/29 10:14:22;;;;;;;320.97;309.27;;;;;;;;;;4993280;28;20528;-62
2022/03/29 10:16:50;;;;;;;294.27;283.40;;;;;;;;;;4992963;28;20420;-63
2022/03/29 10:19:18;;;;;;;331.27;318.93;;;;;;;;;;4992949;28;20381;-64
2022/03/29 10:21:45;;;;;;;314.20;302.30;;;;;;;;;;4994063;28;20447;-58
2022/03/29 10:24:15;;;;;;;333.20;320.00;;;;;;;;;;4989645;28;20921;-62
2022/03/29 10:26:42;;;;;;;294.63;284.10;;;;;;;;;;4994732;28;20482;-62
2022/03/29 10:29:08;;;;;;;265.70;256.63;;;;;;;;;;4994026;28;20459;-62
2022/03/29 10:31:36;;;;;;;290.03;279.77;;;;;;;;;;4994243;28;20414;-62
2022/03/29 10:34:18;;;;;;;295.20;284.70;;;;;;;;;;4994276;28;20445;-62
2022/03/29 10:37:09;;;;;;;61.83;59.87;;;;;;;;;;4994295;28;20964;-62
2022/03/29 10:39:45;;;;;;;72.07;69.73;;;;;;;;;;4994299;28;20854;-62
2022/03/29 10:42:23;;;;;;;71.13;68.80;;;;;;;;;;4994154;28;20448;-64
2022/03/29 10:45:01;;;;;;;34.67;33.60;;;;;;;;;;4994239;28;20431;-62
2022/03/29 10:47:28;;;;;;;209.77;203.20;;;;;;;;;;4994275;28;20414;-63
2022/03/29 10:49:54;;;;;;;272.90;263.17;;;;;;;;;;4993810;28;20493;-62
2022/03/29 10:52:20;;;;;;;270.57;261.13;;;;;;;;;;4993823;28;20400;-61
2022/03/29 10:54:47;;;;;;;275.93;266.00;;;;;;;;;;4993991;28;20429;-63
2022/03/29 10:57:25;;;;;;;263.40;254.33;;;;;;;;;;4993961;28;20436;-63
2022/03/29 10:59:58;;;;;;;275.33;265.33;;;;;;;;;;4993845;28;20387;-63
2022/03/29 11:02:25;;;;;;;292.70;281.70;;;;;;;;;;4993510;28;20457;-62
2022/03/29 11:05:00;;;;;;;284.43;273.67;;;;;;;;;;4993916;28;20448;-62
2022/03/29 11:07:26;;;;;;;300.20;288.80;;;;;;;;;;4993421;28;20417;-63
2022/03/29 11:10:09;;;;;;;312.60;300.27;;;;;;;;;;4993825;28;20460;-62
2022/03/29 11:12:37;;;;;;;283.87;272.90;;;;;;;;;;4993603;28;20408;-63
2022/03/29 11:15:23;;;;;;;307.33;295.50;;;;;;;;;;4993751;28;20412;-63
2022/03/29 11:17:50;;;;;;;316.03;303.77;;;;;;;;;;4993481;28;20498;-61
2022/03/29 11:20:29;;;;;;;327.00;313.80;;;;;;;;;;4991930;28;20416;-63
2022/03/29 11:22:57;;;;;;;302.47;291.10;;;;;;;;;;4992672;28;20496;-65
2022/03/29 11:25:23;;;;;;;341.80;328.57;;;;;;;;;;4991605;28;20416;-62
2022/03/29 11:27:49;;;;;;;335.23;322.47;;;;;;;;;;4993252;28;20427;-63
2022/03/29 11:30:15;;;;;;;337.27;324.37;;;;;;;;;;4993036;28;21068;-63
2022/03/29 11:32:43;;;;;;;342.70;329.33;;;;;;;;;;4993186;28;20469;-64
2022/03/29 11:35:11;;;;;;;345.37;332.23;;;;;;;;;;4993405;28;20428;-64
2022/03/29 11:37:49;;;;;;;340.73;327.90;;;;;;;;;;4993302;28;20410;-64
2022/03/29 11:40:17;;;;;;;313.00;301.57;;;;;;;;;;4991993;28;20758;-63
2022/03/29 11:42:44;;;;;;;288.73;278.63;;;;;;;;;;4992840;28;20466;-63
2022/03/29 11:45:10;;;;;;;315.07;303.70;;;;;;;;;;4993101;28;20431;-63
2022/03/29 11:47:37;;;;;;;331.20;319.13;;;;;;;;;;4993289;28;20922;-64
2022/03/29 11:50:03;;;;;;;323.73;311.77;;;;;;;;;;4992908;28;20865;-63
2022/03/29 11:52:33;;;;;;;335.43;323.07;;;;;;;;;;4992373;28;20451;-63
2022/03/29 11:54:59;;;;;;;354.60;341.37;;;;;;;;;;4992097;28;20957;-61
2022/03/29 11:57:26;;;;;;;324.10;312.33;;;;;;;;;;4992717;28;20421;-64
2022/03/29 11:59:52;;;;;;;320.03;307.97;;;;;;;;;;4992575;28;20416;-64
2022/03/29 12:02:18;;;;;;;351.13;337.53;;;;;;;;;;4991455;28;20519;-62
2022/03/29 12:04:48;;;;;;;351.83;337.83;;;;;;;;;;4991361;28;20948;-63
2022/03/29 12:07:14;;;;;;;355.90;341.67;;;;;;;;;;4989765;28;20420;-62
2022/03/29 12:09:45;;;;;;;353.00;338.80;;;;;;;;;;4991964;28;20796;-63
2022/03/29 12:12:11;;;;;;;336.90;323.40;;;;;;;;;;4991987;28;20465;-63
2022/03/29 12:14:37;;;;;;;355.03;340.37;;;;;;;;;;4992669;28;21035;-63
2022/03/29 12:17:04;;;;;;;345.77;331.57;;;;;;;;;;4992457;28;20798;-64
2022/03/29 12:19:34;;;;;;;337.00;323.20;;;;;;;;;;4991432;28;20421;-63
2022/03/29 12:22:02;;;;;;;345.87;330.97;;;;;;;;;;4985431;28;20528;-63
2022/03/29 12:24:32;;;;;;;343.97;329.33;;;;;;;;;;4972909;28;20418;-64
2022/03/29 12:27:02;;;;;;;358.63;343.10;;;;;;;;;;4973022;28;20818;-63
2022/03/29 12:29:28;;;;;;;363.20;347.80;;;;;;;;;;4972896;28;20473;-62
2022/03/29 12:31:55;;;;;;;367.73;352.17;;;;;;;;;;4972477;28;20760;-61
2022/03/29 12:34:28;;;;;;;325.97;312.67;;;;;;;;;;4972841;28;21087;-62
2022/03/29 12:36:55;;;;;;;368.77;352.77;;;;;;;;;;4972693;28;20441;-64
2022/03/29 12:39:22;;;;;;;340.13;325.93;;;;;;;;;;4972863;28;20415;-63
2022/03/29 12:41:52;;;;;;;345.77;331.00;;;;;;;;;;4972396;28;20924;-62
2022/03/29 12:44:34;;;;;;;323.13;309.23;;;;;;;;;;4972558;28;20426;-62
2022/03/29 12:47:00;;;;;;;319.43;305.87;;;;;;;;;;4972960;28;20855;-62
2022/03/29 12:49:27;;;;;;;327.27;312.87;;;;;;;;;;4972724;28;20470;-62
2022/03/29 12:51:54;;;;;;;317.13;303.17;;;;;;;;;;4972506;28;20410;-62
2022/03/29 12:54:20;;;;;;;315.70;300.80;;;;;;;;;;4972624;28;20438;-62
2022/03/29 12:56:47;;;;;;;341.93;326.07;;;;;;;;;;4972802;28;20414;-62
2022/03/29 12:59:32;;;;;;;327.57;312.43;;;;;;;;;;4990077;28;20444;-62
2022/03/29 13:02:21;;;;;;;297.67;283.97;;;;;;;;;;4991832;28;20420;-61
2022/03/29 13:04:56;;;;;;;310.03;295.93;;;;;;;;;;4982513;28;20422;-62
2022/03/29 13:07:39;;;;;;;306.90;292.60;;;;;;;;;;4992182;28;20912;-63
2022/03/29 13:10:10;;;;;;;296.87;283.03;;;;;;;;;;4991927;28;21042;-62
2022/03/29 13:12:55;;;;;;;325.27;310.23;;;;;;;;;;4991300;28;20984;-62
2022/03/29 13:15:41;;;;;;;307.47;293.17;;;;;;;;;;4990449;28;20436;-63
2022/03/29 13:18:19;;;;;;;286.10;273.00;;;;;;;;;;4989199;28;20425;-64
2022/03/29 13:20:45;;;;;;;304.67;290.67;;;;;;;;;;4986737;28;20428;-65
2022/03/29 13:23:11;;;;;;;288.73;275.93;;;;;;;;;;4988013;28;20449;-63
2022/03/29 13:25:37;;;;;;;281.77;269.57;;;;;;;;;;4990610;28;20437;-63
2022/03/29 13:28:04;;;;;;;297.70;284.17;;;;;;;;;;4989825;28;20424;-63
2022/03/29 13:30:31;;;;;;;316.33;301.97;;;;;;;;;;4990888;28;20529;-63
2022/03/29 13:33:00;;;;;;;306.87;293.03;;;;;;;;;;5021709;22;20844;-62
2022/03/29 13:35:26;;;;;;;308.23;294.30;;;;;;;;;;5015255;28;20436;-63
2022/03/29 13:37:52;;;;;;;307.07;293.17;;;;;;;;;;5015213;28;20419;-62
2022/03/29 13:40:18;;;;;;;316.80;302.30;;;;;;;;;;5014923;28;20412;-62
2022/03/29 13:42:44;;;;;;;315.73;301.13;;;;;;;;;;5015070;28;20965;-62
2022/03/29 13:45:10;;;;;;;291.53;278.57;;;;;;;;;;5014933;28;20379;-62
2022/03/29 13:47:37;;;;;;;290.67;277.97;;;;;;;;;;5014959;28;20409;-62
2022/03/29 13:50:05;;;;;;;308.43;294.23;;;;;;;;;;5014919;28;20500;-62
2022/03/29 13:52:31;;;;;;;264.50;252.87;;;;;;;;;;5014930;28;20412;-62
2022/03/29 13:54:57;;;;;;;264.87;253.30;;;;;;;;;;5014874;28;20405;-62
2022/03/29 13:57:23;;;;;;;268.17;256.57;;;;;;;;;;5014897;28;20411;-62
2022/03/29 13:59:49;;;;;;;287.33;274.27;;;;;;;;;;5014834;28;20495;-62
2022/03/29 14:02:15;;;;;;;276.37;263.93;;;;;;;;;;5014902;28;20835;-62
2022/03/29 14:04:41;;;;;;;259.30;248.10;;;;;;;;;;5014727;28;20555;-62
2022/03/29 14:07:07;;;;;;;249.97;239.17;;;;;;;;;;5014716;28;20908;-62
2022/03/29 14:09:33;;;;;;;263.03;251.43;;;;;;;;;;5014544;28;20455;-62
2022/03/29 14:12:00;;;;;;;262.57;250.73;;;;;;;;;;5014388;28;20495;-62
2022/03/29 14:14:26;;;;;;;275.57;263.27;;;;;;;;;;5014350;28;20424;-62
2022/03/29 14:16:52;;;;;;;282.57;269.97;;;;;;;;;;5014529;28;20404;-62